Terminal Aerodrome Forecast
Issued by NWS

Home | Current Version | Previous Version | Text Only | Print | Product List | Glossary On
Versions: 1 2 3 4 5 6 7 8 9 10 11 12 13 14 15 16 17 18 19 20 21 22 23 24 25 26 27 28 29 30 31 32 33 34 35 36 37 38 39 40 41 42
000
FTUS44 KLZK 231131
TAFADF
TAF
KADF 231131Z 2312/2412 VRB05KT P6SM SCT100
      TEMPO 2312/2313 5SM BR FEW005
     FM231500 29006KT P6SM SCT250
     FM231800 26007G15KT P6SM SCT250
     FM240400 32008G18KT P6SM SCT100 SCT250=

USA.gov is the U.S. government's official web portal to all federal, state and local government web resources and services.